63598 station(s) have been heard in the last 24 hours.

<< 813 814 815 816 817 818 819 >>
  Name/Id Latest heard Comment/Other Map
Symbol DB7JB-1 1778214128 mobile#Karsten/B=100 Map
Symbol OH1GUN 1778214128 Map
Symbol YO6A 1778214128 145.625MHz -0.60 (R1)(Vf Harghita Ciceu 1780m) Map
Symbol W2MN-10 1778214128 144.910MHz Winlink VARA FM Wide Gateway Map
Symbol KB0JWR-10 1778214128 TNC-Pi via YAAC - Wires-X --> Yooper-Net (65384) Map
Symbol ZL1ER-9 1778214128 Map
Symbol JG6YME-A 1778214128 438.130MHz D-STAR>JG6YME A Map
Symbol JQ1ZIX-10 1778214128 I-GATE KATSUURA 144.64MHz {UIV32N} Map
Symbol BI9CPZ-10 1778214128 LoRa iGate Map
Symbol VA7NIC-1 1778214127 Map
Symbol YM3KCN-4 1778214127 LoRa Digi on 433.775MHz Temp: 19.22C, Humid:76.14%, Batt: 3.97V, Solar: 5.48V DigiPcktC:8 Map
Symbol DB1TR-10 1778214127 LoRa APRS iGate Blasewitz Map
Symbol K7NVH-1 1778214127 Map
Symbol BA7MSA-8 1778214127 BA7MSA Map
Symbol IW0ELF-4 1778214127 B=062 Map
Symbol IQ0LT-15 1778214126 Only Mesh NoMSG#ARI Latina/B=100 Map
Symbol KG4EXY-1 1778214126 Map
Symbol W2MMD-4 1778214126 223.500MHz Winlink Packet Gateway Map
Symbol JR5CFK-2 1778214126 W1 W2 KWn-N (APRS DIGI UIDIGI 1.9B3) 1 Map
Symbol XE2MFT-D 1778214126 70cm MMDVM Voice (DMR) 438.15000MHz -5.0000MHz, APRS for DMRGateway Map
Symbol JH9YVE-3 1778214125 W1,HRn-N Obama-City Map
Symbol W4AM-2 1778214125 W4AM Harrison, TN Map
Symbol VC1AACFD9 1778214125 Maj Crash Rt.626inth Map
Symbol IU0JIW-15 1778214125 Meshcom 433/B=100 Map
Symbol JR8YMD-10 1778214125 430.980MHz C077 Echolink-Node JR8YMD-L Map
Symbol VA7OGO-1 1778214125 Map
Symbol WO8E-3 1778214125 Map
Symbol SP7CC-10 1778214125 `Arek-LODZ Map
Symbol 9W8ASR-7 1778214125 Map
Symbol GB2GP 1778214124 JOTA 20/21 Oct Map
Symbol YU1BO 1778214124 Nikola - SU20 & SU20 DMR Map
Symbol YU1BO-1 1778214124 Nikola - SU20 & SU20 DMR Map
Symbol VK2RGA-1 1778214124 Rankins Springs digi Map
Symbol N3FYI-9 1778214124 `449.137MHz C114 -500 WORK TRUCK MOBILE_4 Map
Symbol K7OWW/R 1778214124 224.400MHz C114 -160 | Thurston Hills Map
Symbol S55LG 1778214124 Map
Symbol 439.76-NS 1778214123 439.760MHz T088 -500 JR6WZ/R SHIMABARA Map
Symbol N3EG-4 1778214123 WinAPRS 4.0.0 -WACOWLONGVIEW-290-<630> Map
Symbol W2MMD-3 1778214123 145.030MHz Winlink VARA FM Wide Gateway Map
Symbol Horlovka 1778214123 GOROD TRUDOVOJ SLAVY Map
Symbol SP5YHF-10 1778214123 https://aprsdroid.org Map
Symbol JF6GBH 1778214123 `430.940MHz WIRES-X C4FM FUKUOKA-LINK Map
Symbol KB3TZD 1778214122 Map
Symbol K5LBB-1 1778214122 AllStar Node 609302 Map
Symbol Snezka 1778214122 >2/2 FG 50 (SYNOP) Map
Symbol VK5RSB-1 1778214121 Map
Symbol IRLP-3503 1778214121 147100+100IDLE Map
Symbol DH6MAV-10 1778214121 MeshCom 433,175#DH6MAV-10/B=100 Map
Symbol KD0AXK-2 1778214121 DigiPi http://digipi.org Map
Symbol XE1GSY-2 1778214121 ExpTNC_V1 Linux CPU temp=53.5'C armv6l CPU Usage: 19.3427% 73 !! Map